CheckWX is a tool to help pilots better visualize weather data.  It is not intended as a substitute for an official pre-flight weather briefing.

00:22:02 UTC

KIXD TAF
New Century Aircenter Airport
Olathe, Kansas, USA
KIXD 162326Z 1700/1724 15010KT P6SM BKN250 FM171000 23007KT P6SM BKN090 FM171500 32012KT P6SM VCSH OVC030 FM172000 32011KT P6SM BKN060

Nov-17@
00:00 UTC

Nov-17 @ 00:00 UTC

Nov-17@
10:00 UTC

Nov-17 @ 10:00 UTC

KIXD 162326Z 1700/1724 15010KT P6SM BKN250
Wind
  • 150° at 10 KTS
Cloud Levels
  • Broken at 25,000' AGL

Nov-17@
10:00 UTC

Nov-17 @ 10:00 UTC

Nov-17@
15:00 UTC

Nov-17 @ 15:00 UTC

FM171000 23007KT P6SM BKN090

From

From Standard forecast or significant change

Wind
  • 230° at 7 KTS
Cloud Levels
  • Broken at 9,000' AGL

Nov-17@
15:00 UTC

Nov-17 @ 15:00 UTC

Nov-17@
20:00 UTC

Nov-17 @ 20:00 UTC

FM171500 32012KT P6SM VCSH OVC030

From

From Standard forecast or significant change

Wind
  • 320° at 12 KTS
Cloud Levels
  • Overcast at 3,000' AGL

Nov-17@
20:00 UTC

Nov-17 @ 20:00 UTC

Nov-18@
00:00 UTC

Nov-18 @ 00:00 UTC

FM172000 32011KT P6SM BKN060

From

From Standard forecast or significant change

Wind
  • 320° at 11 KTS
Cloud Levels
  • Broken at 6,000' AGL